createdAt,value
2019-03-21T00:01:04.789Z,85.61
2019-03-21T00:03:33.362Z,85.55
2019-03-21T00:06:02.037Z,85.63
2019-03-21T00:08:30.704Z,85.36
2019-03-21T00:11:08.043Z,85.46
2019-03-21T00:13:36.587Z,85.67
2019-03-21T00:16:07.813Z,85.83
2019-03-21T00:18:38.151Z,86.01
2019-03-21T00:21:06.667Z,85.94
2019-03-21T00:23:35.136Z,86.20
2019-03-21T00:26:03.711Z,85.96
2019-03-21T00:28:32.176Z,86.19
2019-03-21T00:31:00.659Z,86.16
2019-03-21T00:33:29.149Z,86.40
2019-03-21T00:35:57.611Z,86.49
2019-03-21T00:38:28.842Z,86.36
2019-03-21T00:40:57.399Z,86.39
2019-03-21T00:43:25.956Z,86.35
2019-03-21T00:45:54.434Z,86.18
2019-03-21T00:48:22.928Z,86.34
2019-03-21T00:50:51.429Z,86.21
2019-03-21T00:53:19.966Z,86.06
2019-03-21T00:55:54.558Z,86.28
2019-03-21T00:58:23.094Z,86.18
2019-03-21T01:00:58.129Z,86.02
2019-03-21T01:03:26.626Z,86.02
2019-03-21T01:05:55.268Z,86.27
2019-03-21T01:08:23.724Z,86.20
2019-03-21T01:10:52.762Z,86.20
2019-03-21T01:13:21.683Z,85.99
2019-03-21T01:15:50.154Z,85.82
2019-03-21T01:18:19.022Z,85.95
2019-03-21T01:20:47.505Z,86.26
2019-03-21T01:23:16.025Z,86.07
2019-03-21T01:25:59.336Z,85.95
2019-03-21T01:28:27.838Z,85.87
2019-03-21T01:30:56.386Z,85.97
2019-03-21T01:33:24.867Z,85.87
2019-03-21T01:35:53.346Z,85.83
2019-03-21T01:38:21.866Z,85.82
2019-03-21T01:40:53.533Z,85.86
2019-03-21T01:43:22.742Z,85.65
2019-03-21T01:45:51.226Z,85.80
2019-03-21T01:48:19.750Z,85.88
2019-03-21T01:50:48.320Z,86.16
2019-03-21T01:53:16.793Z,86.18
2019-03-21T01:55:45.380Z,86.14
2019-03-21T01:58:14.430Z,85.99
2019-03-21T02:00:45.652Z,86.01
2019-03-21T02:03:14.113Z,86.27
2019-03-21T02:05:42.607Z,86.41
2019-03-21T02:08:11.133Z,86.66
2019-03-21T02:10:39.714Z,86.61
2019-03-21T02:13:08.281Z,86.58
2019-03-21T02:15:36.765Z,86.49
2019-03-21T02:18:05.786Z,86.71
2019-03-21T02:20:34.266Z,86.65
2019-03-21T02:23:02.732Z,86.80
2019-03-21T02:25:34.290Z,87.02
2019-03-21T02:28:02.829Z,86.94
2019-03-21T02:30:45.807Z,86.97
2019-03-21T02:33:17.244Z,87.24
2019-03-21T02:35:45.873Z,86.67
2019-03-21T02:38:14.486Z,86.80
2019-03-21T02:40:44.417Z,87.08
2019-03-21T02:43:12.956Z,87.20
2019-03-21T02:45:41.499Z,87.48
2019-03-21T02:48:10.020Z,87.52
2019-03-21T02:50:41.088Z,87.62
2019-03-21T02:53:09.724Z,87.59
2019-03-21T02:55:38.257Z,87.54
2019-03-21T02:58:06.867Z,87.46
2019-03-21T03:00:36.804Z,87.50
2019-03-21T03:03:07.541Z,87.31
2019-03-21T03:05:36.666Z,87.17
2019-03-21T03:08:06.460Z,87.03
2019-03-21T03:10:44.011Z,86.84
2019-03-21T03:13:12.658Z,86.97
2019-03-21T03:15:42.204Z,86.96
2019-03-21T03:18:15.668Z,86.96
2019-03-21T03:20:44.146Z,86.72
2019-03-21T03:23:13.394Z,86.86
2019-03-21T03:25:41.894Z,86.68
2019-03-21T03:28:22.107Z,86.78
2019-03-21T03:30:55.781Z,86.71
2019-03-21T03:33:24.265Z,86.57
2019-03-21T03:35:52.817Z,86.54
2019-03-21T03:38:21.397Z,86.64
2019-03-21T03:41:04.744Z,86.72
2019-03-21T03:43:33.345Z,86.80
2019-03-21T03:46:01.967Z,86.71
2019-03-21T03:48:31.726Z,86.86
2019-03-21T03:51:00.203Z,86.94
2019-03-21T03:53:28.666Z,86.94
2019-03-21T03:55:57.142Z,86.79
2019-03-21T03:58:28.674Z,86.79
2019-03-21T04:00:57.583Z,87.06
2019-03-21T04:03:27.801Z,87.00
2019-03-21T04:05:56.477Z,87.00
2019-03-21T04:08:24.977Z,87.05
2019-03-21T04:10:58.203Z,87.08
2019-03-21T04:13:26.670Z,86.94
2019-03-21T04:15:55.272Z,86.95
2019-03-21T04:18:25.211Z,87.08
2019-03-21T04:21:13.934Z,87.11
2019-03-21T04:23:42.430Z,87.15
2019-03-21T04:26:18.481Z,87.13
2019-03-21T04:28:46.889Z,87.10
2019-03-21T04:31:15.382Z,87.04
2019-03-21T04:33:45.505Z,87.05
2019-03-21T04:36:14.115Z,86.75
2019-03-21T04:38:42.756Z,86.91
2019-03-21T04:41:11.248Z,86.71
2019-03-21T04:43:39.740Z,86.82
2019-03-21T04:46:08.201Z,86.83
2019-03-21T04:48:36.718Z,86.82
2019-03-21T04:51:05.314Z,86.69
2019-03-21T04:53:33.814Z,86.78
2019-03-21T04:56:02.304Z,86.82
2019-03-21T04:58:31.184Z,86.90
2019-03-21T05:01:00.059Z,86.90
2019-03-21T05:03:30.070Z,87.04
2019-03-21T05:05:58.564Z,86.96
2019-03-21T05:08:27.044Z,86.86
2019-03-21T05:10:55.718Z,86.87
2019-03-21T05:13:24.201Z,86.83
2019-03-21T05:15:54.112Z,86.83
2019-03-21T05:18:48.977Z,86.76
2019-03-21T05:21:20.400Z,86.76
2019-03-21T05:23:48.879Z,86.68
2019-03-21T05:26:17.344Z,86.58
2019-03-21T05:28:45.844Z,86.49
2019-03-21T05:31:17.991Z,86.40
2019-03-21T05:33:46.526Z,86.34
2019-03-21T05:36:14.982Z,86.31
2019-03-21T05:38:43.449Z,86.16
2019-03-21T05:41:11.927Z,86.07
2019-03-21T05:43:46.629Z,86.05
2019-03-21T05:46:25.721Z,86.06
2019-03-21T05:48:44.516Z,86.10
2019-03-21T05:51:13.003Z,86.00
2019-03-21T05:53:41.479Z,85.90
2019-03-21T05:56:10.024Z,85.94
2019-03-21T05:58:38.515Z,85.91
2019-03-21T06:01:11.839Z,85.85
2019-03-21T06:03:50.473Z,85.80
2019-03-21T06:06:30.601Z,85.69
2019-03-21T06:08:59.088Z,85.70
2019-03-21T06:11:28.097Z,85.65
2019-03-21T06:13:56.583Z,85.65
2019-03-21T06:16:25.063Z,85.63
2019-03-21T06:19:05.733Z,85.68
2019-03-21T06:21:37.272Z,85.57
2019-03-21T06:24:20.673Z,85.45
2019-03-21T06:27:14.343Z,85.38
2019-03-21T06:29:39.802Z,85.27
2019-03-21T06:32:08.286Z,85.17
2019-03-21T06:34:36.735Z,85.11
2019-03-21T06:37:05.379Z,85.29
2019-03-21T06:39:34.241Z,85.18
2019-03-21T06:42:04.399Z,85.20
2019-03-21T06:44:32.867Z,84.97
2019-03-21T06:47:01.367Z,84.82
2019-03-21T06:49:35.413Z,84.89
2019-03-21T06:52:03.968Z,84.63
2019-03-21T06:54:38.405Z,84.63
2019-03-21T06:57:06.962Z,84.78
2019-03-21T06:59:35.546Z,84.72
2019-03-21T07:02:04.080Z,84.86
2019-03-21T07:04:32.565Z,84.70
2019-03-21T07:07:08.094Z,84.51
2019-03-21T07:09:31.216Z,84.50
2019-03-21T07:11:59.850Z,84.32
2019-03-21T07:14:28.329Z,84.35
2019-03-21T07:17:00.708Z,84.23
2019-03-21T07:19:27.006Z,84.23
2019-03-21T07:21:55.491Z,84.25
2019-03-21T07:24:23.957Z,84.08
2019-03-21T07:26:52.445Z,84.11
2019-03-21T07:29:20.923Z,83.97
2019-03-21T07:31:49.559Z,83.92
2019-03-21T07:34:18.269Z,84.13
2019-03-21T07:36:46.740Z,84.05
2019-03-21T07:39:15.563Z,84.03
2019-03-21T07:41:44.059Z,83.93
2019-03-21T07:44:13.162Z,84.08
2019-03-21T07:46:41.702Z,83.79
2019-03-21T07:49:10.209Z,83.70
2019-03-21T07:51:38.701Z,83.66
2019-03-21T07:54:07.177Z,83.78
2019-03-21T07:56:37.192Z,83.79
2019-03-21T07:59:05.660Z,83.68
2019-03-21T08:01:34.138Z,83.82
2019-03-21T08:04:03.180Z,83.79
2019-03-21T08:06:31.883Z,83.47
2019-03-21T08:09:00.356Z,83.38
2019-03-21T08:11:28.872Z,83.36
2019-03-21T08:13:57.334Z,83.41
2019-03-21T08:16:25.815Z,83.47
2019-03-21T08:18:57.112Z,83.32
2019-03-21T08:21:25.585Z,83.47
2019-03-21T08:23:54.062Z,83.35
2019-03-21T08:26:22.606Z,83.26
2019-03-21T08:28:51.086Z,83.09
2019-03-21T08:31:19.575Z,82.99
2019-03-21T08:33:48.191Z,82.91
2019-03-21T08:36:16.797Z,82.78
2019-03-21T08:38:45.718Z,82.68
2019-03-21T08:41:14.257Z,82.48
2019-03-21T08:43:42.810Z,82.62
2019-03-21T08:46:11.352Z,82.49
2019-03-21T08:48:39.838Z,82.31
2019-03-21T08:51:08.994Z,82.24
2019-03-21T08:53:37.485Z,82.12
2019-03-21T08:56:06.029Z,81.99
2019-03-21T08:58:34.599Z,81.83
2019-03-21T09:01:03.125Z,81.87
2019-03-21T09:03:31.616Z,81.57
2019-03-21T09:06:00.595Z,81.48
2019-03-21T09:08:29.351Z,81.75
2019-03-21T09:10:57.829Z,81.74
2019-03-21T09:13:26.304Z,81.68
2019-03-21T09:15:54.804Z,81.74
2019-03-21T09:18:23.645Z,81.56
2019-03-21T09:20:52.117Z,81.57
2019-03-21T09:23:20.588Z,81.38
2019-03-21T09:25:51.249Z,81.30
2019-03-21T09:28:19.415Z,81.36
2019-03-21T09:30:50.416Z,81.33
2019-03-21T09:33:18.099Z,81.33
2019-03-21T09:35:46.646Z,81.29
2019-03-21T09:38:15.129Z,81.09
2019-03-21T09:40:43.683Z,81.17
2019-03-21T09:43:12.170Z,81.14
2019-03-21T09:45:40.798Z,81.01
2019-03-21T09:48:09.277Z,80.87
2019-03-21T09:50:37.761Z,81.05
2019-03-21T09:53:07.079Z,81.24
2019-03-21T09:55:35.661Z,81.28
2019-03-21T09:58:04.340Z,81.07
2019-03-21T10:00:34.377Z,81.26
2019-03-21T10:03:02.914Z,81.33
2019-03-21T10:05:32.059Z,81.37
2019-03-21T10:08:00.795Z,81.48
2019-03-21T10:10:35.370Z,81.52
2019-03-21T10:13:05.076Z,81.37
2019-03-21T10:15:33.661Z,81.51
2019-03-21T10:18:02.213Z,81.45
2019-03-21T10:20:30.699Z,81.28
2019-03-21T10:22:59.226Z,81.33
2019-03-21T10:25:27.727Z,81.31
2019-03-21T10:27:56.319Z,81.44
2019-03-21T10:30:35.973Z,81.42
2019-03-21T10:33:06.161Z,81.38
2019-03-21T10:35:34.745Z,81.21
2019-03-21T10:38:03.335Z,81.43
2019-03-21T10:40:31.897Z,81.47
2019-03-21T10:43:00.799Z,81.27
2019-03-21T10:45:29.299Z,81.19
2019-03-21T10:47:57.837Z,81.30
2019-03-21T10:50:33.878Z,81.19
2019-03-21T10:53:02.878Z,81.19
2019-03-21T10:55:31.442Z,81.21
2019-03-21T10:58:00.167Z,81.25
2019-03-21T11:00:28.803Z,81.06
2019-03-21T11:02:57.336Z,80.97
2019-03-21T11:05:25.881Z,81.00
2019-03-21T11:07:54.355Z,81.11
2019-03-21T11:10:23.100Z,80.97
2019-03-21T11:12:51.808Z,80.94
2019-03-21T11:15:20.502Z,80.97
2019-03-21T11:17:49.429Z,80.70
2019-03-21T11:20:29.863Z,80.68
2019-03-21T11:22:58.574Z,80.92
2019-03-21T11:25:27.189Z,80.90
2019-03-21T11:27:55.730Z,80.71
2019-03-21T11:30:34.930Z,80.64
2019-03-21T11:33:03.710Z,80.53
2019-03-21T11:35:32.298Z,80.50
2019-03-21T11:38:01.045Z,80.41
2019-03-21T11:40:29.518Z,79.87
2019-03-21T11:42:58.437Z,79.77
2019-03-21T11:45:26.973Z,79.73
2019-03-21T11:47:55.462Z,79.20
2019-03-21T11:50:24.117Z,79.21
2019-03-21T11:52:52.720Z,79.18
2019-03-21T11:55:29.202Z,79.05
2019-03-21T11:57:57.840Z,79.12
2019-03-21T12:00:26.358Z,79.27
2019-03-21T12:02:56.402Z,79.11
2019-03-21T12:05:24.885Z,79.01
2019-03-21T12:07:53.362Z,78.49
2019-03-21T12:10:26.901Z,78.59
2019-03-21T12:12:55.406Z,78.46
2019-03-21T12:15:24.041Z,78.10
2019-03-21T12:17:52.512Z,77.99
2019-03-21T12:20:32.252Z,77.75
2019-03-21T12:23:00.807Z,77.55
2019-03-21T12:25:29.312Z,77.50
2019-03-21T12:27:57.926Z,77.07
2019-03-21T12:30:35.477Z,76.68
2019-03-21T12:33:07.285Z,77.03
2019-03-21T12:35:35.468Z,76.77
2019-03-21T12:38:08.267Z,76.60
2019-03-21T12:40:36.922Z,76.06
2019-03-21T12:43:06.935Z,75.86
2019-03-21T12:45:35.505Z,75.68
2019-03-21T12:48:04.221Z,75.69
2019-03-21T12:50:32.716Z,75.79
2019-03-21T12:53:01.194Z,75.21
2019-03-21T12:55:29.783Z,75.71
2019-03-21T12:57:58.265Z,74.90
2019-03-21T13:00:35.413Z,75.26
2019-03-21T13:03:03.905Z,75.21
2019-03-21T13:05:32.718Z,75.38
2019-03-21T13:08:01.269Z,74.87
2019-03-21T13:10:29.747Z,75.02
2019-03-21T13:13:00.339Z,75.14
2019-03-21T13:15:30.059Z,74.73
2019-03-21T13:18:00.427Z,74.69
2019-03-21T13:20:28.946Z,74.19
2019-03-21T13:22:57.497Z,74.55
2019-03-21T13:25:26.366Z,74.23
2019-03-21T13:27:54.882Z,73.96
2019-03-21T13:30:23.639Z,74.06
2019-03-21T13:32:52.195Z,74.49
2019-03-21T13:35:31.653Z,74.39
2019-03-21T13:37:51.013Z,74.67
2019-03-21T13:40:19.666Z,74.00
2019-03-21T13:42:48.248Z,74.31
2019-03-21T13:45:20.633Z,74.34
2019-03-21T13:47:49.144Z,74.23
2019-03-21T13:50:18.801Z,73.99
2019-03-21T13:52:50.475Z,74.06
2019-03-21T13:55:20.586Z,74.06
2019-03-21T13:57:49.518Z,74.40
2019-03-21T14:00:22.068Z,74.35
2019-03-21T14:02:50.539Z,74.17
2019-03-21T14:05:19.175Z,74.32
2019-03-21T14:07:51.665Z,74.19
2019-03-21T14:10:20.428Z,74.15
2019-03-21T14:12:50.849Z,74.21
2019-03-21T14:15:19.619Z,74.28
2019-03-21T14:17:52.144Z,74.07
2019-03-21T14:20:20.889Z,73.95
2019-03-21T14:22:49.370Z,73.34
2019-03-21T14:25:19.539Z,73.81
2019-03-21T14:27:48.049Z,73.86
2019-03-21T14:30:18.129Z,73.81
2019-03-21T14:32:49.545Z,73.50
2019-03-21T14:35:18.211Z,73.57
2019-03-21T14:37:48.261Z,73.72
2019-03-21T14:40:17.826Z,73.79
2019-03-21T14:42:46.502Z,73.92
2019-03-21T14:45:16.673Z,73.81
2019-03-21T14:47:45.214Z,73.30
2019-03-21T14:50:15.278Z,73.53
2019-03-21T14:52:43.854Z,73.44
2019-03-21T14:55:14.502Z,73.04
2019-03-21T14:57:43.259Z,73.38
2019-03-21T15:00:16.387Z,73.52
2019-03-21T15:02:44.894Z,73.58
2019-03-21T15:05:13.776Z,73.29
2019-03-21T15:07:42.696Z,73.07
2019-03-21T15:10:14.383Z,72.59
2019-03-21T15:12:43.014Z,72.18
2019-03-21T15:15:13.640Z,72.19
2019-03-21T15:17:42.236Z,72.34
2019-03-21T15:20:12.918Z,72.64
2019-03-21T15:22:41.513Z,72.86
2019-03-21T15:25:10.708Z,72.93
2019-03-21T15:27:39.183Z,73.22
2019-03-21T15:30:19.615Z,73.42
2019-03-21T15:32:48.267Z,73.01
2019-03-21T15:35:18.458Z,72.94
2019-03-21T15:37:48.633Z,73.27
2019-03-21T15:40:17.603Z,73.26
2019-03-21T15:42:46.140Z,73.49
2019-03-21T15:45:23.242Z,73.22
2019-03-21T15:47:49.402Z,73.43
2019-03-21T15:50:29.135Z,73.41
2019-03-21T15:52:57.846Z,72.90
2019-03-21T15:55:26.554Z,72.92
2019-03-21T15:57:55.079Z,73.04
2019-03-21T16:00:32.235Z,73.24
2019-03-21T16:03:00.699Z,73.34
2019-03-21T16:05:29.277Z,73.22
2019-03-21T16:07:57.756Z,73.17
2019-03-21T16:10:28.796Z,73.24
2019-03-21T16:12:57.271Z,73.08
2019-03-21T16:15:25.866Z,73.21
2019-03-21T16:17:55.841Z,72.85
2019-03-21T16:20:24.469Z,72.93
2019-03-21T16:22:52.949Z,73.15
2019-03-21T16:25:21.625Z,73.27
2019-03-21T16:27:50.099Z,73.45
2019-03-21T16:30:18.846Z,73.53
2019-03-21T16:32:47.330Z,73.71
2019-03-21T16:35:16.011Z,73.74
2019-03-21T16:37:44.515Z,73.84
2019-03-21T16:40:14.421Z,73.97
2019-03-21T16:42:42.896Z,73.89
2019-03-21T16:45:15.938Z,73.89
2019-03-21T16:47:44.500Z,74.18
2019-03-21T16:50:14.330Z,74.21
2019-03-21T16:52:42.815Z,74.12
2019-03-21T16:55:12.596Z,74.26
2019-03-21T16:57:41.051Z,74.26
2019-03-21T17:00:14.415Z,74.29
2019-03-21T17:02:42.897Z,74.49
2019-03-21T17:05:11.672Z,74.60
2019-03-21T17:07:40.175Z,74.62
2019-03-21T17:10:13.694Z,74.68
2019-03-21T17:12:42.326Z,74.84
2019-03-21T17:15:12.328Z,74.94
2019-03-21T17:17:43.114Z,74.88
2019-03-21T17:20:12.494Z,74.89
2019-03-21T17:22:41.081Z,75.04
2019-03-21T17:25:10.159Z,74.99
2019-03-21T17:27:38.794Z,75.05
2019-03-21T17:30:14.939Z,75.14
2019-03-21T17:32:43.493Z,75.17
2019-03-21T17:35:12.138Z,75.22
2019-03-21T17:37:40.635Z,75.28
2019-03-21T17:40:14.046Z,75.38
2019-03-21T17:42:42.626Z,75.36
2019-03-21T17:45:14.021Z,75.50
2019-03-21T17:47:42.558Z,75.53
2019-03-21T17:50:13.341Z,75.61
2019-03-21T17:52:41.808Z,75.76
2019-03-21T17:55:10.789Z,75.79
2019-03-21T17:57:39.266Z,75.79
2019-03-21T18:00:20.163Z,75.74
2019-03-21T18:02:48.709Z,75.78
2019-03-21T18:05:17.545Z,76.01
2019-03-21T18:07:46.099Z,76.12
2019-03-21T18:10:17.702Z,75.96
2019-03-21T18:12:46.270Z,76.02
2019-03-21T18:15:15.036Z,75.93
2019-03-21T18:17:43.884Z,75.95
2019-03-21T18:20:12.518Z,76.25
2019-03-21T18:22:41.011Z,76.25
2019-03-21T18:25:12.282Z,76.17
2019-03-21T18:27:40.859Z,76.06
2019-03-21T18:30:09.868Z,76.15
2019-03-21T18:32:38.469Z,76.05
2019-03-21T18:35:07.840Z,76.13
2019-03-21T18:37:36.330Z,76.19
2019-03-21T18:40:07.399Z,76.14
2019-03-21T18:42:35.916Z,76.25
2019-03-21T18:45:05.809Z,76.42
2019-03-21T18:47:35.801Z,76.31
2019-03-21T18:50:09.794Z,76.17
2019-03-21T18:52:39.919Z,76.43
2019-03-21T18:55:08.959Z,76.17
2019-03-21T18:57:37.616Z,76.18
2019-03-21T19:00:11.972Z,76.10
2019-03-21T19:02:42.186Z,76.19
2019-03-21T19:05:10.855Z,76.43
2019-03-21T19:07:39.538Z,76.40
2019-03-21T19:10:15.016Z,76.36
2019-03-21T19:12:43.722Z,76.40
2019-03-21T19:15:14.378Z,76.39
2019-03-21T19:17:42.985Z,76.37
2019-03-21T19:20:17.207Z,76.27
2019-03-21T19:22:45.810Z,76.45
2019-03-21T19:25:19.084Z,76.39
2019-03-21T19:27:45.902Z,76.47
2019-03-21T19:30:20.141Z,76.53
2019-03-21T19:32:48.735Z,76.57
2019-03-21T19:35:17.374Z,76.77
2019-03-21T19:37:46.693Z,76.47
2019-03-21T19:40:23.046Z,76.38
2019-03-21T19:42:53.085Z,76.49
2019-03-21T19:45:24.277Z,76.50
2019-03-21T19:47:52.894Z,76.64
2019-03-21T19:50:23.665Z,76.60
2019-03-21T19:52:52.154Z,76.68
2019-03-21T19:55:30.237Z,76.46
2019-03-21T19:57:51.082Z,76.46
2019-03-21T20:00:23.410Z,76.65
2019-03-21T20:02:53.406Z,76.58
2019-03-21T20:05:22.087Z,76.76
2019-03-21T20:07:50.984Z,76.56
2019-03-21T20:10:20.877Z,76.55
2019-03-21T20:12:49.492Z,76.68
2019-03-21T20:15:18.465Z,76.56
2019-03-21T20:17:48.515Z,76.60
2019-03-21T20:20:21.473Z,76.56
2019-03-21T20:22:49.933Z,76.60
2019-03-21T20:25:18.682Z,76.56
2019-03-21T20:27:47.187Z,76.54
2019-03-21T20:30:21.615Z,76.53
2019-03-21T20:32:50.101Z,76.58
2019-03-21T20:35:18.744Z,76.69
2019-03-21T20:37:47.394Z,76.59
2019-03-21T20:40:20.132Z,76.64
2019-03-21T20:42:48.744Z,76.84
2019-03-21T20:45:18.839Z,76.94
2019-03-21T20:47:47.698Z,77.05
2019-03-21T20:50:16.785Z,77.52
2019-03-21T20:52:45.332Z,77.42
2019-03-21T20:55:15.267Z,77.40
2019-03-21T20:57:45.300Z,77.31
2019-03-21T21:00:21.981Z,77.32
2019-03-21T21:02:50.896Z,77.45
2019-03-21T21:05:19.584Z,77.60
2019-03-21T21:07:48.282Z,77.57
2019-03-21T21:10:16.995Z,77.59
2019-03-21T21:12:45.555Z,77.65
2019-03-21T21:15:17.982Z,77.45
2019-03-21T21:17:46.559Z,77.67
2019-03-21T21:20:16.827Z,77.62
2019-03-21T21:22:45.379Z,77.61
2019-03-21T21:25:14.563Z,77.61
2019-03-21T21:27:49.577Z,77.77
2019-03-21T21:30:19.279Z,77.74
2019-03-21T21:32:47.894Z,77.64
2019-03-21T21:35:16.646Z,77.88
2019-03-21T21:37:45.599Z,77.90
2019-03-21T21:40:16.605Z,78.00
2019-03-21T21:42:45.158Z,78.10
2019-03-21T21:45:16.004Z,78.23
2019-03-21T21:47:44.699Z,78.28
2019-03-21T21:50:15.376Z,78.30
2019-03-21T21:52:46.858Z,78.35
2019-03-21T21:55:15.633Z,78.34
2019-03-21T21:57:44.092Z,78.31
2019-03-21T22:00:17.788Z,78.42
2019-03-21T22:02:46.309Z,78.53
2019-03-21T22:05:15.020Z,78.51
2019-03-21T22:07:43.551Z,78.54
2019-03-21T22:10:13.241Z,78.55
2019-03-21T22:12:41.776Z,78.53
2019-03-21T22:15:15.148Z,78.69
2019-03-21T22:17:43.654Z,78.66
2019-03-21T22:20:16.347Z,78.59
2019-03-21T22:22:46.797Z,78.71
2019-03-21T22:25:15.594Z,78.80
2019-03-21T22:27:44.123Z,78.79
2019-03-21T22:30:15.122Z,78.65
2019-03-21T22:32:43.844Z,78.68
2019-03-21T22:35:12.472Z,78.79
2019-03-21T22:37:41.076Z,78.83
2019-03-21T22:40:11.501Z,78.78
2019-03-21T22:42:39.983Z,78.90
2019-03-21T22:45:11.488Z,78.92
2019-03-21T22:47:40.039Z,78.86
2019-03-21T22:50:19.090Z,78.98
2019-03-21T22:52:47.746Z,79.13
2019-03-21T22:55:16.394Z,79.16
2019-03-21T22:57:44.946Z,79.04
2019-03-21T23:00:16.483Z,78.85
2019-03-21T23:02:45.031Z,78.84
2019-03-21T23:05:14.150Z,78.81
2019-03-21T23:07:42.616Z,78.96
2019-03-21T23:10:11.757Z,78.94
2019-03-21T23:12:40.382Z,78.99
2019-03-21T23:15:11.210Z,78.94
2019-03-21T23:17:39.735Z,79.12
2019-03-21T23:20:14.073Z,79.11
2019-03-21T23:22:42.812Z,79.16
2019-03-21T23:25:13.185Z,79.41
2019-03-21T23:27:41.647Z,79.21
2019-03-21T23:30:15.922Z,79.40
2019-03-21T23:32:44.568Z,79.52
2019-03-21T23:35:14.116Z,79.40
2019-03-21T23:37:42.663Z,79.56
2019-03-21T23:40:15.612Z,79.56
2019-03-21T23:42:44.417Z,79.42
2019-03-21T23:45:14.443Z,79.70
2019-03-21T23:47:43.038Z,80.06
2019-03-21T23:50:13.665Z,80.32
2019-03-21T23:52:42.207Z,80.40
2019-03-21T23:55:11.692Z,80.33
2019-03-21T23:57:40.227Z,80.19
